sensor_id;sensor_type;location;lat;lon;timestamp;temperature;humidity
14053;DHT22;7101;51.600;7.310;2023-04-30T00:02:10;6.90;99.90
14053;DHT22;7101;51.600;7.310;2023-04-30T00:04:38;6.90;99.90
14053;DHT22;7101;51.600;7.310;2023-04-30T00:07:05;6.80;99.90
14053;DHT22;7101;51.600;7.310;2023-04-30T00:09:33;6.70;99.90
14053;DHT22;7101;51.600;7.310;2023-04-30T00:12:00;6.60;99.90
14053;DHT22;7101;51.600;7.310;2023-04-30T00:14:27;6.60;99.90
14053;DHT22;7101;51.600;7.310;2023-04-30T00:16:53;6.60;99.90
14053;DHT22;7101;51.600;7.310;2023-04-30T00:19:20;6.60;99.90
14053;DHT22;7101;51.600;7.310;2023-04-30T00:21:48;6.60;99.90
14053;DHT22;7101;51.600;7.310;2023-04-30T00:24:15;6.40;99.90
14053;DHT22;7101;51.600;7.310;2023-04-30T00:26:42;6.30;99.90
14053;DHT22;7101;51.600;7.310;2023-04-30T00:29:09;6.20;99.90
14053;DHT22;7101;51.600;7.310;2023-04-30T00:31:37;6.20;99.90
14053;DHT22;7101;51.600;7.310;2023-04-30T00:34:03;6.20;99.90
14053;DHT22;7101;51.600;7.310;2023-04-30T00:36:30;6.20;99.90
14053;DHT22;7101;51.600;7.310;2023-04-30T00:38:59;6.00;99.90
14053;DHT22;7101;51.600;7.310;2023-04-30T00:41:26;5.90;99.90
14053;DHT22;7101;51.600;7.310;2023-04-30T00:43:54;6.00;99.90
14053;DHT22;7101;51.600;7.310;2023-04-30T00:46:21;6.00;99.90
14053;DHT22;7101;51.600;7.310;2023-04-30T00:48:48;6.00;99.90
14053;DHT22;7101;51.600;7.310;2023-04-30T00:51:15;6.00;99.90
14053;DHT22;7101;51.600;7.310;2023-04-30T00:53:42;6.00;99.90
14053;DHT22;7101;51.600;7.310;2023-04-30T00:56:12;5.90;99.90
14053;DHT22;7101;51.600;7.310;2023-04-30T00:58:41;5.90;99.90
14053;DHT22;7101;51.600;7.310;2023-04-30T01:01:07;5.80;99.90
14053;DHT22;7101;51.600;7.310;2023-04-30T01:03:34;5.70;99.90
14053;DHT22;7101;51.600;7.310;2023-04-30T01:06:01;5.70;99.90
14053;DHT22;7101;51.600;7.310;2023-04-30T01:08:28;5.70;99.90
14053;DHT22;7101;51.600;7.310;2023-04-30T01:11:06;5.70;99.90
14053;DHT22;7101;51.600;7.310;2023-04-30T01:13:47;5.60;99.90
14053;DHT22;7101;51.600;7.310;2023-04-30T01:16:19;5.60;99.90
14053;DHT22;7101;51.600;7.310;2023-04-30T01:18:51;5.50;99.90
14053;DHT22;7101;51.600;7.310;2023-04-30T01:21:20;5.40;99.90
14053;DHT22;7101;51.600;7.310;2023-04-30T01:24:05;5.40;99.90
14053;DHT22;7101;51.600;7.310;2023-04-30T01:26:52;5.50;99.90
14053;DHT22;7101;51.600;7.310;2023-04-30T01:29:23;5.50;99.90
14053;DHT22;7101;51.600;7.310;2023-04-30T01:35:14;5.40;99.90
14053;DHT22;7101;51.600;7.310;2023-04-30T01:37:58;5.40;99.90
14053;DHT22;7101;51.600;7.310;2023-04-30T01:40:34;5.30;99.90
14053;DHT22;7101;51.600;7.310;2023-04-30T01:43:11;5.40;99.90
14053;DHT22;7101;51.600;7.310;2023-04-30T01:46:02;5.50;99.90
14053;DHT22;7101;51.600;7.310;2023-04-30T01:48:39;5.50;99.90
14053;DHT22;7101;51.600;7.310;2023-04-30T01:51:15;5.60;99.90
14053;DHT22;7101;51.600;7.310;2023-04-30T01:53:45;5.50;99.90
14053;DHT22;7101;51.600;7.310;2023-04-30T01:56:17;5.50;99.90
14053;DHT22;7101;51.600;7.310;2023-04-30T01:58:48;5.30;99.90
14053;DHT22;7101;51.600;7.310;2023-04-30T02:01:29;5.30;99.90
14053;DHT22;7101;51.600;7.310;2023-04-30T02:03:56;5.30;99.90
14053;DHT22;7101;51.600;7.310;2023-04-30T02:06:24;5.20;99.90
14053;DHT22;7101;51.600;7.310;2023-04-30T02:08:54;5.30;99.90
14053;DHT22;7101;51.600;7.310;2023-04-30T02:11:26;5.20;99.90
14053;DHT22;7101;51.600;7.310;2023-04-30T02:13:53;5.20;99.90
14053;DHT22;7101;51.600;7.310;2023-04-30T02:16:20;5.20;99.90
14053;DHT22;7101;51.600;7.310;2023-04-30T02:18:48;5.20;99.90
14053;DHT22;7101;51.600;7.310;2023-04-30T02:21:15;5.00;99.90
14053;DHT22;7101;51.600;7.310;2023-04-30T02:23:42;5.00;99.90
14053;DHT22;7101;51.600;7.310;2023-04-30T02:26:10;5.00;99.90
14053;DHT22;7101;51.600;7.310;2023-04-30T02:28:37;5.00;99.90
14053;DHT22;7101;51.600;7.310;2023-04-30T02:31:03;4.90;99.90
14053;DHT22;7101;51.600;7.310;2023-04-30T02:33:30;4.90;99.90
14053;DHT22;7101;51.600;7.310;2023-04-30T02:35:59;4.80;99.90
14053;DHT22;7101;51.600;7.310;2023-04-30T02:38:26;4.80;99.90
14053;DHT22;7101;51.600;7.310;2023-04-30T02:40:53;4.80;99.90
14053;DHT22;7101;51.600;7.310;2023-04-30T02:43:20;4.80;99.90
14053;DHT22;7101;51.600;7.310;2023-04-30T02:45:47;4.80;99.90
14053;DHT22;7101;51.600;7.310;2023-04-30T02:48:14;4.80;99.90
14053;DHT22;7101;51.600;7.310;2023-04-30T02:50:40;4.70;99.90
14053;DHT22;7101;51.600;7.310;2023-04-30T02:53:09;4.70;99.90
14053;DHT22;7101;51.600;7.310;2023-04-30T02:55:35;4.60;99.90
14053;DHT22;7101;51.600;7.310;2023-04-30T02:58:02;4.60;99.90
14053;DHT22;7101;51.600;7.310;2023-04-30T03:00:29;4.60;99.90
14053;DHT22;7101;51.600;7.310;2023-04-30T03:02:55;4.60;99.90
14053;DHT22;7101;51.600;7.310;2023-04-30T03:05:23;4.60;99.90
14053;DHT22;7101;51.600;7.310;2023-04-30T03:07:49;4.60;99.90
14053;DHT22;7101;51.600;7.310;2023-04-30T03:10:17;4.60;99.90
14053;DHT22;7101;51.600;7.310;2023-04-30T03:12:44;4.70;99.90
14053;DHT22;7101;51.600;7.310;2023-04-30T03:15:11;4.70;99.90
14053;DHT22;7101;51.600;7.310;2023-04-30T03:17:38;4.60;99.90
14053;DHT22;7101;51.600;7.310;2023-04-30T03:20:06;4.70;99.90
14053;DHT22;7101;51.600;7.310;2023-04-30T03:22:32;4.60;99.90
14053;DHT22;7101;51.600;7.310;2023-04-30T03:24:59;4.70;99.90
14053;DHT22;7101;51.600;7.310;2023-04-30T03:27:27;4.70;99.90
14053;DHT22;7101;51.600;7.310;2023-04-30T03:29:54;4.70;99.90
14053;DHT22;7101;51.600;7.310;2023-04-30T03:32:21;4.70;99.90
14053;DHT22;7101;51.600;7.310;2023-04-30T03:34:48;4.70;99.90
14053;DHT22;7101;51.600;7.310;2023-04-30T03:37:16;4.60;99.90
14053;DHT22;7101;51.600;7.310;2023-04-30T03:39:42;4.60;99.90
14053;DHT22;7101;51.600;7.310;2023-04-30T03:42:10;4.50;99.90
14053;DHT22;7101;51.600;7.310;2023-04-30T03:44:38;4.40;99.90
14053;DHT22;7101;51.600;7.310;2023-04-30T03:47:05;4.40;99.90
14053;DHT22;7101;51.600;7.310;2023-04-30T03:49:32;4.40;99.90
14053;DHT22;7101;51.600;7.310;2023-04-30T03:52:00;4.60;99.90
14053;DHT22;7101;51.600;7.310;2023-04-30T03:54:28;4.60;99.90
14053;DHT22;7101;51.600;7.310;2023-04-30T03:56:55;4.70;99.90
14053;DHT22;7101;51.600;7.310;2023-04-30T03:59:22;4.80;99.90
14053;DHT22;7101;51.600;7.310;2023-04-30T04:01:50;4.80;99.90
14053;DHT22;7101;51.600;7.310;2023-04-30T04:04:17;4.90;99.90
14053;DHT22;7101;51.600;7.310;2023-04-30T04:06:44;5.00;99.90
14053;DHT22;7101;51.600;7.310;2023-04-30T04:09:11;5.10;99.90
14053;DHT22;7101;51.600;7.310;2023-04-30T04:11:38;5.20;99.90
14053;DHT22;7101;51.600;7.310;2023-04-30T04:14:04;5.30;99.90
14053;DHT22;7101;51.600;7.310;2023-04-30T04:16:31;5.30;99.90
14053;DHT22;7101;51.600;7.310;2023-04-30T04:18:59;5.40;99.90
14053;DHT22;7101;51.600;7.310;2023-04-30T04:21:26;5.40;99.90
14053;DHT22;7101;51.600;7.310;2023-04-30T04:23:53;5.30;99.90
14053;DHT22;7101;51.600;7.310;2023-04-30T04:26:20;5.30;99.90
14053;DHT22;7101;51.600;7.310;2023-04-30T04:28:50;5.40;99.90
14053;DHT22;7101;51.600;7.310;2023-04-30T04:31:17;5.40;99.90
14053;DHT22;7101;51.600;7.310;2023-04-30T04:33:45;5.50;99.90
14053;DHT22;7101;51.600;7.310;2023-04-30T04:36:13;5.50;99.90
14053;DHT22;7101;51.600;7.310;2023-04-30T04:38:40;5.50;99.90
14053;DHT22;7101;51.600;7.310;2023-04-30T04:41:08;5.60;99.90
14053;DHT22;7101;51.600;7.310;2023-04-30T04:43:34;5.60;99.90
14053;DHT22;7101;51.600;7.310;2023-04-30T04:46:03;5.70;99.90
14053;DHT22;7101;51.600;7.310;2023-04-30T04:48:29;5.80;99.90
14053;DHT22;7101;51.600;7.310;2023-04-30T04:50:56;5.80;99.90
14053;DHT22;7101;51.600;7.310;2023-04-30T04:53:25;5.90;99.90
14053;DHT22;7101;51.600;7.310;2023-04-30T04:55:51;5.90;99.90
14053;DHT22;7101;51.600;7.310;2023-04-30T04:58:18;6.00;99.90
14053;DHT22;7101;51.600;7.310;2023-04-30T05:00:45;6.10;99.90
14053;DHT22;7101;51.600;7.310;2023-04-30T05:03:11;6.10;99.90
14053;DHT22;7101;51.600;7.310;2023-04-30T05:05:38;6.10;99.90
14053;DHT22;7101;51.600;7.310;2023-04-30T05:08:06;6.30;99.90
14053;DHT22;7101;51.600;7.310;2023-04-30T05:10:34;6.90;99.90
14053;DHT22;7101;51.600;7.310;2023-04-30T05:13:01;8.10;99.90
14053;DHT22;7101;51.600;7.310;2023-04-30T05:15:28;9.00;99.90
14053;DHT22;7101;51.600;7.310;2023-04-30T05:17:55;9.70;99.90
14053;DHT22;7101;51.600;7.310;2023-04-30T05:20:22;10.50;99.90
14053;DHT22;7101;51.600;7.310;2023-04-30T05:22:49;11.30;99.90
14053;DHT22;7101;51.600;7.310;2023-04-30T05:25:16;11.40;99.90
14053;DHT22;7101;51.600;7.310;2023-04-30T05:27:44;12.30;99.90
14053;DHT22;7101;51.600;7.310;2023-04-30T05:30:11;13.10;99.90
14053;DHT22;7101;51.600;7.310;2023-04-30T05:32:40;13.70;99.90
14053;DHT22;7101;51.600;7.310;2023-04-30T05:35:07;13.70;99.90
14053;DHT22;7101;51.600;7.310;2023-04-30T05:37:34;14.30;99.90
14053;DHT22;7101;51.600;7.310;2023-04-30T05:40:01;14.30;99.90
14053;DHT22;7101;51.600;7.310;2023-04-30T05:42:28;14.30;99.90
14053;DHT22;7101;51.600;7.310;2023-04-30T05:44:56;14.70;99.90
14053;DHT22;7101;51.600;7.310;2023-04-30T05:47:23;14.50;99.90
14053;DHT22;7101;51.600;7.310;2023-04-30T05:49:50;14.50;99.90
14053;DHT22;7101;51.600;7.310;2023-04-30T05:52:17;14.30;99.90
14053;DHT22;7101;51.600;7.310;2023-04-30T05:54:43;14.20;99.90
14053;DHT22;7101;51.600;7.310;2023-04-30T05:57:10;15.00;99.90
14053;DHT22;7101;51.600;7.310;2023-04-30T05:59:37;14.40;99.90
14053;DHT22;7101;51.600;7.310;2023-04-30T06:02:06;14.70;99.90
14053;DHT22;7101;51.600;7.310;2023-04-30T06:04:33;14.70;99.90
14053;DHT22;7101;51.600;7.310;2023-04-30T06:07:00;15.30;99.90
14053;DHT22;7101;51.600;7.310;2023-04-30T06:09:27;15.40;99.90
14053;DHT22;7101;51.600;7.310;2023-04-30T06:11:54;15.80;99.90
14053;DHT22;7101;51.600;7.310;2023-04-30T06:14:23;15.70;99.90
14053;DHT22;7101;51.600;7.310;2023-04-30T06:16:51;15.10;99.90
14053;DHT22;7101;51.600;7.310;2023-04-30T06:19:19;15.00;99.90
14053;DHT22;7101;51.600;7.310;2023-04-30T06:21:46;15.10;99.90
14053;DHT22;7101;51.600;7.310;2023-04-30T06:24:14;15.10;99.90
14053;DHT22;7101;51.600;7.310;2023-04-30T06:26:40;14.90;99.90
14053;DHT22;7101;51.600;7.310;2023-04-30T06:29:08;14.90;99.90
14053;DHT22;7101;51.600;7.310;2023-04-30T06:31:37;15.50;99.90
14053;DHT22;7101;51.600;7.310;2023-04-30T06:34:05;15.90;99.90
14053;DHT22;7101;51.600;7.310;2023-04-30T06:36:33;15.40;99.90
14053;DHT22;7101;51.600;7.310;2023-04-30T06:39:00;15.60;99.90
14053;DHT22;7101;51.600;7.310;2023-04-30T06:41:27;16.00;99.90
14053;DHT22;7101;51.600;7.310;2023-04-30T06:43:56;16.40;99.90
14053;DHT22;7101;51.600;7.310;2023-04-30T06:46:24;16.50;99.90
14053;DHT22;7101;51.600;7.310;2023-04-30T06:48:51;16.50;99.90
14053;DHT22;7101;51.600;7.310;2023-04-30T06:51:18;16.60;99.90
14053;DHT22;7101;51.600;7.310;2023-04-30T06:53:47;16.30;99.90
14053;DHT22;7101;51.600;7.310;2023-04-30T06:56:15;16.20;99.90
14053;DHT22;7101;51.600;7.310;2023-04-30T06:58:41;16.00;99.90
14053;DHT22;7101;51.600;7.310;2023-04-30T07:01:09;15.90;99.90
14053;DHT22;7101;51.600;7.310;2023-04-30T07:03:37;15.50;99.90
14053;DHT22;7101;51.600;7.310;2023-04-30T07:06:05;15.40;99.90
14053;DHT22;7101;51.600;7.310;2023-04-30T07:08:32;15.00;99.90
14053;DHT22;7101;51.600;7.310;2023-04-30T07:11:00;15.20;99.90
14053;DHT22;7101;51.600;7.310;2023-04-30T07:13:27;15.10;99.90
14053;DHT22;7101;51.600;7.310;2023-04-30T07:15:55;15.90;99.90
14053;DHT22;7101;51.600;7.310;2023-04-30T07:18:23;16.10;99.90
14053;DHT22;7101;51.600;7.310;2023-04-30T07:20:51;15.80;99.90
14053;DHT22;7101;51.600;7.310;2023-04-30T07:23:18;16.20;99.90
14053;DHT22;7101;51.600;7.310;2023-04-30T07:25:46;16.30;99.90
14053;DHT22;7101;51.600;7.310;2023-04-30T07:28:16;16.20;99.90
14053;DHT22;7101;51.600;7.310;2023-04-30T07:30:43;16.20;99.90
14053;DHT22;7101;51.600;7.310;2023-04-30T07:33:12;16.20;99.90
14053;DHT22;7101;51.600;7.310;2023-04-30T07:35:39;16.40;99.90
14053;DHT22;7101;51.600;7.310;2023-04-30T07:38:05;16.60;99.90
14053;DHT22;7101;51.600;7.310;2023-04-30T07:40:32;16.90;99.90
14053;DHT22;7101;51.600;7.310;2023-04-30T07:43:03;17.00;99.90
14053;DHT22;7101;51.600;7.310;2023-04-30T07:45:33;17.60;99.90
14053;DHT22;7101;51.600;7.310;2023-04-30T07:48:00;17.90;99.90
14053;DHT22;7101;51.600;7.310;2023-04-30T07:50:28;17.60;99.90
14053;DHT22;7101;51.600;7.310;2023-04-30T07:53:00;17.70;99.90
14053;DHT22;7101;51.600;7.310;2023-04-30T07:55:27;17.50;99.90
14053;DHT22;7101;51.600;7.310;2023-04-30T07:57:53;17.50;99.90
14053;DHT22;7101;51.600;7.310;2023-04-30T08:00:21;17.70;99.90
14053;DHT22;7101;51.600;7.310;2023-04-30T08:02:49;17.30;99.90
14053;DHT22;7101;51.600;7.310;2023-04-30T08:05:18;17.40;99.90
14053;DHT22;7101;51.600;7.310;2023-04-30T08:07:46;17.30;99.90
14053;DHT22;7101;51.600;7.310;2023-04-30T08:10:12;17.10;99.90
14053;DHT22;7101;51.600;7.310;2023-04-30T08:12:39;17.10;99.90
14053;DHT22;7101;51.600;7.310;2023-04-30T08:15:07;17.10;99.90
14053;DHT22;7101;51.600;7.310;2023-04-30T08:17:34;17.40;99.90
14053;DHT22;7101;51.600;7.310;2023-04-30T08:20:05;17.20;99.90
14053;DHT22;7101;51.600;7.310;2023-04-30T08:22:33;17.10;99.90
14053;DHT22;7101;51.600;7.310;2023-04-30T08:25:00;17.70;99.90
14053;DHT22;7101;51.600;7.310;2023-04-30T08:27:29;17.40;99.90
14053;DHT22;7101;51.600;7.310;2023-04-30T08:29:58;17.50;99.90
14053;DHT22;7101;51.600;7.310;2023-04-30T08:32:26;17.40;99.90
14053;DHT22;7101;51.600;7.310;2023-04-30T08:34:55;17.20;99.90
14053;DHT22;7101;51.600;7.310;2023-04-30T08:37:24;17.20;99.90
14053;DHT22;7101;51.600;7.310;2023-04-30T08:39:51;17.40;99.90
14053;DHT22;7101;51.600;7.310;2023-04-30T08:42:18;17.20;99.90
14053;DHT22;7101;51.600;7.310;2023-04-30T08:44:47;17.20;99.90
14053;DHT22;7101;51.600;7.310;2023-04-30T08:47:16;17.60;99.90
14053;DHT22;7101;51.600;7.310;2023-04-30T08:49:44;17.80;99.90
14053;DHT22;7101;51.600;7.310;2023-04-30T08:52:13;17.70;99.90
14053;DHT22;7101;51.600;7.310;2023-04-30T08:54:41;17.50;99.90
14053;DHT22;7101;51.600;7.310;2023-04-30T08:57:09;17.00;99.90
14053;DHT22;7101;51.600;7.310;2023-04-30T08:59:36;16.80;99.90
14053;DHT22;7101;51.600;7.310;2023-04-30T09:02:04;16.70;99.90
14053;DHT22;7101;51.600;7.310;2023-04-30T09:04:31;16.80;99.90
14053;DHT22;7101;51.600;7.310;2023-04-30T09:06:57;16.60;99.90
14053;DHT22;7101;51.600;7.310;2023-04-30T09:09:27;16.40;99.90
14053;DHT22;7101;51.600;7.310;2023-04-30T09:14:59;16.10;99.90
14053;DHT22;7101;51.600;7.310;2023-04-30T09:17:27;15.70;99.90
14053;DHT22;7101;51.600;7.310;2023-04-30T09:19:55;15.60;99.90
14053;DHT22;7101;51.600;7.310;2023-04-30T09:22:31;15.60;99.90
14053;DHT22;7101;51.600;7.310;2023-04-30T09:24:59;15.30;99.90
14053;DHT22;7101;51.600;7.310;2023-04-30T09:27:27;15.70;99.90
14053;DHT22;7101;51.600;7.310;2023-04-30T09:29:54;15.90;99.90
14053;DHT22;7101;51.600;7.310;2023-04-30T09:32:23;15.80;99.90
14053;DHT22;7101;51.600;7.310;2023-04-30T09:34:56;16.10;99.90
14053;DHT22;7101;51.600;7.310;2023-04-30T09:37:34;16.50;99.90
14053;DHT22;7101;51.600;7.310;2023-04-30T09:40:01;16.80;99.90
14053;DHT22;7101;51.600;7.310;2023-04-30T09:42:29;16.30;99.90
14053;DHT22;7101;51.600;7.310;2023-04-30T09:44:57;16.30;99.90
14053;DHT22;7101;51.600;7.310;2023-04-30T09:47:29;16.60;99.90
14053;DHT22;7101;51.600;7.310;2023-04-30T09:49:58;16.70;99.90
14053;DHT22;7101;51.600;7.310;2023-04-30T09:52:25;16.70;99.90
14053;DHT22;7101;51.600;7.310;2023-04-30T09:54:52;16.60;99.90
14053;DHT22;7101;51.600;7.310;2023-04-30T09:57:22;16.60;99.90
14053;DHT22;7101;51.600;7.310;2023-04-30T09:59:51;16.40;99.90
14053;DHT22;7101;51.600;7.310;2023-04-30T10:02:18;16.40;99.90
14053;DHT22;7101;51.600;7.310;2023-04-30T10:04:54;16.30;99.90
14053;DHT22;7101;51.600;7.310;2023-04-30T10:07:28;16.30;99.90
14053;DHT22;7101;51.600;7.310;2023-04-30T10:09:58;16.40;99.90
14053;DHT22;7101;51.600;7.310;2023-04-30T10:12:36;16.70;99.90
14053;DHT22;7101;51.600;7.310;2023-04-30T10:15:10;16.60;99.90
14053;DHT22;7101;51.600;7.310;2023-04-30T10:17:39;16.20;99.90
14053;DHT22;7101;51.600;7.310;2023-04-30T10:20:14;16.10;99.90
14053;DHT22;7101;51.600;7.310;2023-04-30T10:22:43;16.20;99.90
14053;DHT22;7101;51.600;7.310;2023-04-30T10:25:13;16.20;99.90
14053;DHT22;7101;51.600;7.310;2023-04-30T10:27:40;16.20;99.90
14053;DHT22;7101;51.600;7.310;2023-04-30T10:30:09;16.30;99.90
14053;DHT22;7101;51.600;7.310;2023-04-30T10:32:40;16.60;99.90
14053;DHT22;7101;51.600;7.310;2023-04-30T10:35:16;16.30;99.90
14053;DHT22;7101;51.600;7.310;2023-04-30T10:37:47;16.00;99.90
14053;DHT22;7101;51.600;7.310;2023-04-30T10:40:18;15.90;99.90
14053;DHT22;7101;51.600;7.310;2023-04-30T10:42:47;16.10;99.90
14053;DHT22;7101;51.600;7.310;2023-04-30T10:45:15;16.20;99.90
14053;DHT22;7101;51.600;7.310;2023-04-30T10:47:43;16.10;99.90
14053;DHT22;7101;51.600;7.310;2023-04-30T10:50:11;16.00;99.90
14053;DHT22;7101;51.600;7.310;2023-04-30T10:52:39;16.00;99.90
14053;DHT22;7101;51.600;7.310;2023-04-30T10:55:07;16.10;99.90
14053;DHT22;7101;51.600;7.310;2023-04-30T10:57:40;16.10;99.90
14053;DHT22;7101;51.600;7.310;2023-04-30T11:00:24;16.30;99.90
14053;DHT22;7101;51.600;7.310;2023-04-30T11:02:56;16.20;99.90
14053;DHT22;7101;51.600;7.310;2023-04-30T11:05:34;16.00;99.90
14053;DHT22;7101;51.600;7.310;2023-04-30T11:08:03;16.00;99.90
14053;DHT22;7101;51.600;7.310;2023-04-30T11:10:32;15.90;99.90
14053;DHT22;7101;51.600;7.310;2023-04-30T11:13:04;16.00;99.90
14053;DHT22;7101;51.600;7.310;2023-04-30T11:15:34;15.80;99.90
14053;DHT22;7101;51.600;7.310;2023-04-30T11:18:06;15.90;99.90
14053;DHT22;7101;51.600;7.310;2023-04-30T11:20:39;16.00;99.90
14053;DHT22;7101;51.600;7.310;2023-04-30T11:23:12;16.00;99.90
14053;DHT22;7101;51.600;7.310;2023-04-30T11:25:44;15.90;99.90
14053;DHT22;7101;51.600;7.310;2023-04-30T11:28:13;16.10;99.90
14053;DHT22;7101;51.600;7.310;2023-04-30T11:30:48;16.30;99.90
14053;DHT22;7101;51.600;7.310;2023-04-30T11:33:16;16.20;99.90
14053;DHT22;7101;51.600;7.310;2023-04-30T11:35:43;16.10;99.90
14053;DHT22;7101;51.600;7.310;2023-04-30T11:38:13;16.20;99.90
14053;DHT22;7101;51.600;7.310;2023-04-30T11:40:41;16.30;99.90
14053;DHT22;7101;51.600;7.310;2023-04-30T11:43:20;16.30;99.90
14053;DHT22;7101;51.600;7.310;2023-04-30T11:46:04;16.20;99.90
14053;DHT22;7101;51.600;7.310;2023-04-30T11:48:32;16.40;99.90
14053;DHT22;7101;51.600;7.310;2023-04-30T11:51:02;16.40;99.90
14053;DHT22;7101;51.600;7.310;2023-04-30T11:53:31;16.00;99.90
14053;DHT22;7101;51.600;7.310;2023-04-30T11:56:02;16.10;99.90
14053;DHT22;7101;51.600;7.310;2023-04-30T11:58:33;16.20;99.90
14053;DHT22;7101;51.600;7.310;2023-04-30T12:01:00;16.20;99.90
14053;DHT22;7101;51.600;7.310;2023-04-30T12:03:40;16.40;99.90
14053;DHT22;7101;51.600;7.310;2023-04-30T12:06:09;16.40;99.90
14053;DHT22;7101;51.600;7.310;2023-04-30T12:08:37;16.60;99.90
14053;DHT22;7101;51.600;7.310;2023-04-30T12:11:19;16.50;99.90
14053;DHT22;7101;51.600;7.310;2023-04-30T12:13:51;16.50;99.90
14053;DHT22;7101;51.600;7.310;2023-04-30T12:16:19;16.50;99.90
14053;DHT22;7101;51.600;7.310;2023-04-30T12:18:45;16.30;99.90
14053;DHT22;7101;51.600;7.310;2023-04-30T12:21:13;16.30;99.90
14053;DHT22;7101;51.600;7.310;2023-04-30T12:23:41;16.10;99.90
14053;DHT22;7101;51.600;7.310;2023-04-30T12:26:09;16.20;99.90
14053;DHT22;7101;51.600;7.310;2023-04-30T12:28:36;16.60;99.90
14053;DHT22;7101;51.600;7.310;2023-04-30T12:31:03;16.30;99.90
14053;DHT22;7101;51.600;7.310;2023-04-30T12:33:31;16.10;99.90
14053;DHT22;7101;51.600;7.310;2023-04-30T12:36:00;15.90;99.90
14053;DHT22;7101;51.600;7.310;2023-04-30T12:38:28;16.30;99.90
14053;DHT22;7101;51.600;7.310;2023-04-30T12:40:56;16.60;99.90
14053;DHT22;7101;51.600;7.310;2023-04-30T12:43:23;16.60;99.90
14053;DHT22;7101;51.600;7.310;2023-04-30T12:45:51;16.60;99.90
14053;DHT22;7101;51.600;7.310;2023-04-30T12:48:20;16.70;99.90
14053;DHT22;7101;51.600;7.310;2023-04-30T12:50:51;16.30;99.90
14053;DHT22;7101;51.600;7.310;2023-04-30T12:53:21;16.40;99.90
14053;DHT22;7101;51.600;7.310;2023-04-30T12:56:09;16.70;99.90
14053;DHT22;7101;51.600;7.310;2023-04-30T12:58:38;16.90;99.90
14053;DHT22;7101;51.600;7.310;2023-04-30T13:01:10;16.80;99.90
14053;DHT22;7101;51.600;7.310;2023-04-30T13:03:37;16.90;99.90
14053;DHT22;7101;51.600;7.310;2023-04-30T13:06:04;17.10;99.90
14053;DHT22;7101;51.600;7.310;2023-04-30T13:08:32;17.20;99.90
14053;DHT22;7101;51.600;7.310;2023-04-30T13:11:00;16.90;99.90
14053;DHT22;7101;51.600;7.310;2023-04-30T13:13:29;16.90;99.90
14053;DHT22;7101;51.600;7.310;2023-04-30T13:15:56;16.90;99.90
14053;DHT22;7101;51.600;7.310;2023-04-30T13:18:24;17.00;99.90
14053;DHT22;7101;51.600;7.310;2023-04-30T13:20:51;16.80;99.90
14053;DHT22;7101;51.600;7.310;2023-04-30T13:23:18;16.80;99.90
14053;DHT22;7101;51.600;7.310;2023-04-30T13:25:45;17.10;99.90
14053;DHT22;7101;51.600;7.310;2023-04-30T13:28:12;17.10;99.90
14053;DHT22;7101;51.600;7.310;2023-04-30T13:30:41;16.90;99.90
14053;DHT22;7101;51.600;7.310;2023-04-30T13:33:08;16.50;99.90
14053;DHT22;7101;51.600;7.310;2023-04-30T13:35:35;16.60;99.90
14053;DHT22;7101;51.600;7.310;2023-04-30T13:38:02;17.00;99.90
14053;DHT22;7101;51.600;7.310;2023-04-30T13:40:30;17.10;99.90
14053;DHT22;7101;51.600;7.310;2023-04-30T13:42:58;16.90;99.90
14053;DHT22;7101;51.600;7.310;2023-04-30T13:45:25;17.20;99.90
14053;DHT22;7101;51.600;7.310;2023-04-30T13:47:53;17.40;99.90
14053;DHT22;7101;51.600;7.310;2023-04-30T13:50:20;17.70;99.90
14053;DHT22;7101;51.600;7.310;2023-04-30T13:52:47;17.80;99.90
14053;DHT22;7101;51.600;7.310;2023-04-30T13:55:14;17.30;99.90
14053;DHT22;7101;51.600;7.310;2023-04-30T13:57:42;17.50;99.90
14053;DHT22;7101;51.600;7.310;2023-04-30T14:00:10;17.40;99.90
14053;DHT22;7101;51.600;7.310;2023-04-30T14:02:38;17.40;99.90
14053;DHT22;7101;51.600;7.310;2023-04-30T14:05:07;17.70;99.90
14053;DHT22;7101;51.600;7.310;2023-04-30T14:07:35;17.70;99.90
14053;DHT22;7101;51.600;7.310;2023-04-30T14:10:03;17.60;99.90
14053;DHT22;7101;51.600;7.310;2023-04-30T14:12:30;17.30;99.90
14053;DHT22;7101;51.600;7.310;2023-04-30T14:14:57;17.20;99.90
14053;DHT22;7101;51.600;7.310;2023-04-30T14:17:25;17.00;99.90
14053;DHT22;7101;51.600;7.310;2023-04-30T14:19:52;17.20;99.90
14053;DHT22;7101;51.600;7.310;2023-04-30T14:22:21;17.30;99.90
14053;DHT22;7101;51.600;7.310;2023-04-30T14:24:51;17.50;99.90
14053;DHT22;7101;51.600;7.310;2023-04-30T14:27:18;17.40;99.90
14053;DHT22;7101;51.600;7.310;2023-04-30T14:29:45;17.20;99.90
14053;DHT22;7101;51.600;7.310;2023-04-30T14:32:13;17.30;99.90
14053;DHT22;7101;51.600;7.310;2023-04-30T14:34:40;17.30;99.90
14053;DHT22;7101;51.600;7.310;2023-04-30T14:37:08;17.10;99.90
14053;DHT22;7101;51.600;7.310;2023-04-30T14:39:38;17.10;99.90
14053;DHT22;7101;51.600;7.310;2023-04-30T14:42:05;17.50;99.90
14053;DHT22;7101;51.600;7.310;2023-04-30T14:44:36;17.80;99.90
14053;DHT22;7101;51.600;7.310;2023-04-30T14:47:03;17.60;99.90
14053;DHT22;7101;51.600;7.310;2023-04-30T14:49:31;17.50;99.90
14053;DHT22;7101;51.600;7.310;2023-04-30T14:51:58;17.20;99.90
14053;DHT22;7101;51.600;7.310;2023-04-30T14:54:25;17.30;99.90
14053;DHT22;7101;51.600;7.310;2023-04-30T14:56:53;17.40;99.90
14053;DHT22;7101;51.600;7.310;2023-04-30T14:59:20;17.70;99.90
14053;DHT22;7101;51.600;7.310;2023-04-30T15:01:47;17.90;99.90
14053;DHT22;7101;51.600;7.310;2023-04-30T15:04:15;18.10;99.90
14053;DHT22;7101;51.600;7.310;2023-04-30T15:06:43;17.80;99.90
14053;DHT22;7101;51.600;7.310;2023-04-30T15:09:09;17.60;99.90
14053;DHT22;7101;51.600;7.310;2023-04-30T15:11:36;17.60;99.90
14053;DHT22;7101;51.600;7.310;2023-04-30T15:14:05;17.50;99.90
14053;DHT22;7101;51.600;7.310;2023-04-30T15:16:32;17.40;99.90
14053;DHT22;7101;51.600;7.310;2023-04-30T15:19:01;17.70;99.90
14053;DHT22;7101;51.600;7.310;2023-04-30T15:21:29;17.80;99.90
14053;DHT22;7101;51.600;7.310;2023-04-30T15:23:56;17.70;99.90
14053;DHT22;7101;51.600;7.310;2023-04-30T15:26:23;17.50;99.90
14053;DHT22;7101;51.600;7.310;2023-04-30T15:28:51;17.40;99.90
14053;DHT22;7101;51.600;7.310;2023-04-30T15:31:21;17.30;99.90
14053;DHT22;7101;51.600;7.310;2023-04-30T15:33:48;17.30;99.90
14053;DHT22;7101;51.600;7.310;2023-04-30T15:36:16;17.30;99.90
14053;DHT22;7101;51.600;7.310;2023-04-30T15:38:42;17.40;99.90
14053;DHT22;7101;51.600;7.310;2023-04-30T15:41:10;17.50;99.90
14053;DHT22;7101;51.600;7.310;2023-04-30T15:43:37;17.50;99.90
14053;DHT22;7101;51.600;7.310;2023-04-30T15:46:06;17.50;99.90
14053;DHT22;7101;51.600;7.310;2023-04-30T15:48:34;17.40;99.90
14053;DHT22;7101;51.600;7.310;2023-04-30T15:51:03;17.40;99.90
14053;DHT22;7101;51.600;7.310;2023-04-30T15:53:30;17.30;99.90
14053;DHT22;7101;51.600;7.310;2023-04-30T15:55:57;17.30;99.90
14053;DHT22;7101;51.600;7.310;2023-04-30T15:58:24;17.40;99.90
14053;DHT22;7101;51.600;7.310;2023-04-30T16:00:51;17.40;99.90
14053;DHT22;7101;51.600;7.310;2023-04-30T16:03:18;17.20;99.90
14053;DHT22;7101;51.600;7.310;2023-04-30T16:05:49;17.10;99.90
14053;DHT22;7101;51.600;7.310;2023-04-30T16:08:16;17.20;99.90